Time;durP1;ratioP1;P1;durP2;ratioP2;P2;SDS_P1;SDS_P2;PMS_P1;PMS_P2;Temp;Humidity;BMP_temperature;BMP_pressure;BME280_temperature;BME280_humidity;BME280_pressure;Samples;Min_cycle;Max_cycle;Signal;HPM_P1;HPM_P2
2023/01/09 00:01:39;;;;;;;9.63;4.82;;;9.50;99.90;;;9.64;86.55;99175.06;5094046;28;20040;-73
2023/01/09 00:04:10;;;;;;;6.50;4.32;;;9.40;99.90;;;9.80;86.70;99186.06;5094355;28;20097;-73
2023/01/09 00:06:39;;;;;;;;;;;9.50;99.90;;;9.87;85.94;99179.72;5094514;28;20457;-73
2023/01/09 00:09:07;;;;;;;7.45;4.22;;;9.60;99.90;;;9.80;86.41;99173.75;5094169;28;19920;-73
2023/01/09 00:11:35;;;;;;;11.48;4.63;;;9.60;99.90;;;9.67;86.20;99159.16;5093912;28;20045;-72
2023/01/09 00:14:04;;;;;;;8.68;4.72;;;9.50;99.90;;;9.80;86.38;99179.00;5093812;28;20050;-73
2023/01/09 00:16:33;;;;;;;10.35;4.55;;;9.50;99.90;;;9.76;86.26;99164.16;5094120;28;20127;-73
2023/01/09 00:19:01;;;;;;;9.77;5.25;;;9.60;99.90;;;9.75;86.73;99174.78;5093770;28;20055;-73
2023/01/09 00:21:31;;;;;;;11.95;4.90;;;9.50;99.90;;;9.74;87.19;99183.59;5093703;28;20040;-73
2023/01/09 00:23:59;;;;;;;11.98;5.00;;;9.50;99.90;;;9.75;87.24;99185.34;5094007;28;20044;-73
2023/01/09 00:26:28;;;;;;;12.10;5.15;;;9.50;99.90;;;9.66;87.15;99172.38;5093642;28;20079;-73
2023/01/09 00:28:58;;;;;;;12.93;5.13;;;9.50;99.90;;;9.57;87.02;99152.41;5093734;28;20082;-73
2023/01/09 00:31:27;;;;;;;8.80;4.95;;;9.50;99.90;;;9.60;87.87;99167.31;5093790;28;20105;-73
2023/01/09 00:33:59;;;;;;;6.32;4.43;;;9.40;99.90;;;9.62;87.24;99165.50;5093811;28;20071;-73
2023/01/09 00:36:31;;;;;;;8.60;4.93;;;9.40;99.90;;;9.65;87.34;99162.75;5093540;28;20067;-73
2023/01/09 00:38:59;;;;;;;8.55;5.40;;;9.40;99.90;;;9.58;87.45;99162.03;5094003;28;20048;-72
2023/01/09 00:41:31;;;;;;;7.60;4.60;;;9.40;99.90;;;9.54;87.57;99159.56;5075650;28;20035;-73
2023/01/09 00:44:06;;;;;;;11.25;5.30;;;9.30;99.90;;;9.54;87.23;99162.19;5093493;28;20074;-72
2023/01/09 00:46:39;;;;;;;6.43;4.82;;;9.40;99.90;;;9.44;87.44;99143.09;5093414;28;20052;-73
2023/01/09 00:49:09;;;;;;;6.78;4.63;;;9.30;99.90;;;9.32;87.94;99117.06;5093649;28;20044;-73
2023/01/09 00:51:41;;;;;;;9.48;5.32;;;9.30;99.90;;;9.49;87.73;99158.78;5093789;28;20098;-72
2023/01/09 00:54:11;;;;;;;9.15;4.63;;;9.30;99.90;;;9.39;87.78;99163.47;5093303;28;20050;-72
2023/01/09 00:56:40;;;;;;;7.22;5.18;;;9.20;99.90;;;9.40;88.21;99162.56;5093552;28;20040;-72
2023/01/09 00:59:08;;;;;;;8.60;5.03;;;9.20;99.90;;;9.39;88.29;99158.19;5093485;28;20046;-73
2023/01/09 01:01:37;;;;;;;9.52;5.38;;;9.20;99.90;;;9.30;88.46;99147.00;5093279;28;20032;-73
2023/01/09 01:09:34;;;;;;;7.88;5.20;;;9.20;99.90;;;9.31;89.95;99165.44;5062044;28;20056;-73
2023/01/09 01:12:05;;;;;;;9.85;5.43;;;9.10;99.90;;;9.24;89.98;99133.97;5093362;28;20036;-73
2023/01/09 01:14:35;;;;;;;7.35;4.88;;;9.10;99.90;;;9.41;89.89;99161.63;5093120;28;20123;-73
2023/01/09 01:17:04;;;;;;;10.20;5.32;;;9.20;99.90;;;9.39;89.67;99166.09;5093241;28;20076;-73
2023/01/09 01:19:33;;;;;;;10.65;5.38;;;9.20;99.90;;;9.37;90.31;99175.81;5093000;28;20048;-73
2023/01/09 01:22:03;;;;;;;7.93;4.88;;;9.20;99.90;;;9.26;90.17;99184.94;5093126;28;20119;-72
2023/01/09 01:24:32;;;;;;;8.10;4.80;;;9.20;99.90;;;9.13;90.27;99126.38;5093511;28;20044;-73
2023/01/09 01:27:00;;;;;;;5.90;4.70;;;9.20;99.90;;;9.27;90.20;99174.31;5093163;28;20393;-72
2023/01/09 01:29:29;;;;;;;10.40;5.53;;;9.10;99.90;;;9.19;90.55;99160.50;5074947;28;20139;-73
2023/01/09 01:31:57;;;;;;;8.85;4.80;;;9.00;99.90;;;9.24;90.67;99160.34;5092879;28;20036;-73
2023/01/09 01:34:26;;;;;;;8.48;5.80;;;9.00;99.90;;;9.20;90.66;99164.84;5092805;28;20118;-73
2023/01/09 01:36:54;;;;;;;13.15;5.50;;;9.00;99.90;;;9.07;91.01;99174.00;5092821;28;20048;-73
2023/01/09 01:39:24;;;;;;;8.55;5.07;;;8.90;99.90;;;9.09;90.74;99159.88;5092960;28;20055;-73
2023/01/09 01:41:52;;;;;;;11.47;5.43;;;9.00;99.90;;;9.03;90.76;99144.22;5092842;28;20102;-73
2023/01/09 01:45:01;;;;;;;9.02;6.07;;;8.90;99.90;;;8.89;90.91;99138.41;5093052;28;20478;-73
2023/01/09 01:47:38;;;;;;;9.63;5.30;;;8.80;99.90;;;8.98;90.96;99154.00;5074668;28;20047;-73
2023/01/09 01:50:15;;;;;;;11.45;5.47;;;8.90;99.90;;;8.92;91.51;99158.56;5092931;28;20074;-73
2023/01/09 01:52:48;;;;;;;9.30;5.20;;;8.80;99.90;;;8.94;91.19;99154.97;5074834;28;20109;-73
2023/01/09 01:55:19;;;;;;;8.38;5.80;;;8.80;99.90;;;8.90;91.28;99168.28;5092618;28;20059;-73
2023/01/09 01:57:52;;;;;;;11.07;5.57;;;8.70;99.90;;;8.85;91.56;99157.84;5092680;28;20450;-73
2023/01/09 02:00:27;;;;;;;10.07;5.30;;;8.70;99.90;;;8.88;91.71;99167.47;5092671;28;20040;-73
2023/01/09 02:02:55;;;;;;;11.70;5.53;;;8.70;99.90;;;8.84;92.30;99171.06;5092911;28;20139;-73
2023/01/09 02:05:24;;;;;;;10.43;5.82;;;8.70;99.90;;;8.80;92.36;99167.66;5074747;28;20516;-73
2023/01/09 02:07:52;;;;;;;13.10;5.97;;;8.70;99.90;;;8.75;92.64;99144.97;5092546;28;20044;-73
2023/01/09 02:10:23;;;;;;;11.68;5.70;;;8.60;99.90;;;8.66;92.47;99129.34;5092716;28;20036;-72
2023/01/09 02:12:51;;;;;;;11.15;5.88;;;8.60;99.90;;;8.71;92.84;99153.84;5093569;28;20040;-73
2023/01/09 02:15:21;;;;;;;11.32;5.88;;;8.60;99.90;;;8.80;92.77;99164.16;5096738;28;20035;-73
2023/01/09 02:18:28;;;;;;;11.82;6.30;;;8.60;99.90;;;8.80;92.29;99165.03;5077896;28;20058;-73
2023/01/09 02:21:00;;;;;;;11.43;6.40;;;8.60;99.90;;;8.50;92.38;99112.19;5089398;28;20056;-73
2023/01/09 02:24:08;;;;;;;13.57;5.70;;;8.60;99.90;;;8.85;92.73;99154.34;5096315;28;20478;-73
2023/01/09 02:27:07;;;;;;;12.40;5.70;;;8.60;99.90;;;8.85;92.40;99178.06;5096124;28;20460;-72
2023/01/09 02:30:31;;;;;;;13.98;6.28;;;8.60;99.90;;;8.86;92.16;99177.19;5078232;28;20139;-72
2023/01/09 02:33:24;;;;;;;15.13;5.93;;;8.60;99.90;;;8.71;91.55;99167.88;5077206;28;20060;-65
2023/01/09 02:36:12;;;;;;;11.80;5.70;;;8.70;99.90;;;8.85;91.78;99162.25;5077410;28;20082;-66
2023/01/09 02:38:53;;;;;;;16.58;5.72;;;8.70;99.90;;;8.72;91.88;99155.56;5095301;28;20079;-65
2023/01/09 02:41:27;;;;;;;14.68;6.45;;;8.70;99.90;;;8.80;91.25;99143.94;5095530;28;20044;-65
2023/01/09 02:44:18;;;;;;;13.60;6.43;;;8.70;99.90;;;8.94;91.57;99162.88;5095170;28;20048;-66
2023/01/09 02:46:59;;;;;;;14.77;5.95;;;8.80;99.90;;;8.95;91.19;99164.63;5084948;28;20044;-65
2023/01/09 02:49:28;;;;;;;14.93;5.78;;;8.80;99.90;;;8.83;90.99;99177.25;5077274;28;20048;-65
2023/01/09 02:52:14;;;;;;;12.77;5.55;;;8.70;99.90;;;8.80;91.64;99164.16;5095347;28;20477;-65
2023/01/09 02:54:54;;;;;;;10.15;5.28;;;8.70;99.90;;;8.83;91.09;99166.69;5094747;28;20048;-66
2023/01/09 02:57:38;;;;;;;;;;;8.70;99.90;;;8.56;91.36;99133.09;5095838;28;20151;-66
2023/01/09 03:00:17;;;;;;;9.10;5.50;;;8.70;99.90;;;8.71;91.47;99169.66;5095234;28;19970;-65
2023/01/09 03:02:51;;;;;;;9.70;5.50;;;8.60;99.90;;;8.74;91.29;99141.44;5094638;28;20070;-66
2023/01/09 03:05:29;;;;;;;9.82;5.63;;;8.60;99.90;;;8.74;91.10;99151.13;5076540;28;20040;-67
2023/01/09 03:08:04;;;;;;;10.95;4.82;;;8.60;99.90;;;8.72;91.30;99139.75;5076600;28;20044;-65
2023/01/09 03:10:38;;;;;;;12.13;5.30;;;8.60;99.90;;;8.72;91.30;99123.94;5094659;28;20213;-65
2023/01/09 03:13:11;;;;;;;12.88;5.50;;;8.60;99.90;;;8.77;90.59;99132.56;5094446;28;20047;-66
2023/01/09 03:15:42;;;;;;;13.18;5.95;;;8.70;99.90;;;8.79;90.28;99122.88;5094371;28;20105;-65
2023/01/09 03:18:16;;;;;;;13.48;5.32;;;8.70;99.90;;;8.92;90.76;99132.22;5094499;28;20126;-66
2023/01/09 03:20:48;;;;;;;12.00;5.20;;;8.70;99.90;;;8.84;90.45;99129.78;5094444;28;20048;-66
2023/01/09 03:23:17;;;;;;;10.05;5.82;;;8.80;99.90;;;8.87;90.67;99119.13;5094157;28;20119;-66
2023/01/09 03:25:45;;;;;;;10.80;5.85;;;8.80;99.90;;;8.82;90.22;99114.91;5094377;28;20044;-65
2023/01/09 03:28:25;;;;;;;14.25;5.63;;;8.80;99.90;;;9.00;90.32;99135.53;5094388;28;20081;-65
2023/01/09 03:30:54;;;;;;;11.38;6.00;;;8.80;99.90;;;8.97;90.97;99148.78;5093933;28;20135;-66
2023/01/09 03:33:24;;;;;;;16.23;6.63;;;8.80;99.90;;;8.77;90.83;99119.41;5094363;28;20040;-65
2023/01/09 03:35:53;;;;;;;11.40;5.68;;;8.80;99.90;;;8.88;91.31;99143.75;5094182;28;20085;-66
2023/01/09 03:38:21;;;;;;;12.50;5.65;;;8.80;99.90;;;8.88;91.21;99130.56;5094171;28;20508;-65
2023/01/09 03:40:50;;;;;;;13.38;5.90;;;8.80;99.90;;;8.77;91.93;99111.50;5094382;28;20047;-66
2023/01/09 03:43:18;;;;;;;14.50;5.80;;;8.70;99.90;;;8.87;92.27;99128.81;5094016;28;20397;-65
2023/01/09 03:45:47;;;;;;;11.57;6.15;;;8.70;99.90;;;8.85;92.86;99149.94;5094074;28;20128;-65
2023/01/09 03:48:15;;;;;;;12.27;5.72;;;8.70;99.90;;;8.89;92.87;99145.47;5094247;28;20044;-65
2023/01/09 03:50:46;;;;;;;10.73;5.65;;;8.70;99.90;;;8.70;93.13;99109.94;5094122;28;20117;-66
2023/01/09 03:53:14;;;;;;;10.45;6.10;;;8.80;99.90;;;8.89;92.86;99140.19;5094112;28;20046;-66
2023/01/09 03:55:45;;;;;;;15.90;5.68;;;8.70;99.90;;;8.90;93.18;99139.28;5094377;28;20036;-65
2023/01/09 03:58:14;;;;;;;12.68;5.65;;;8.80;99.90;;;8.85;93.14;99143.78;5094024;28;20032;-65
2023/01/09 04:00:44;;;;;;;13.38;5.75;;;8.70;99.90;;;8.70;93.61;99137.16;5093695;28;20086;-65
2023/01/09 04:03:13;;;;;;;14.68;5.93;;;8.60;99.90;;;8.78;93.83;99134.31;5093864;28;20090;-65
2023/01/09 04:05:43;;;;;;;9.18;5.43;;;8.70;99.90;;;8.64;93.56;99107.44;5093819;28;20036;-66
2023/01/09 04:08:13;;;;;;;13.13;5.63;;;8.70;99.90;;;8.59;93.54;99133.94;5093597;28;20508;-66
2023/01/09 04:10:45;;;;;;;17.23;6.45;;;8.60;99.90;;;8.25;94.26;99096.09;5092546;28;20052;-65
2023/01/09 04:13:13;;;;;;;18.42;6.03;;;8.40;99.90;;;8.54;94.38;99132.28;5093829;28;20105;-66
2023/01/09 04:15:42;;;;;;;13.38;5.82;;;8.40;99.90;;;8.34;94.13;99111.72;5092487;28;20051;-65
2023/01/09 04:18:10;;;;;;;10.63;5.80;;;8.40;99.90;;;8.21;94.28;99097.03;5093593;28;20056;-65
2023/01/09 04:20:39;;;;;;;10.10;5.85;;;8.40;99.90;;;8.21;94.23;99087.38;5093412;28;20494;-65
2023/01/09 04:23:07;;;;;;;10.40;5.22;;;8.40;99.90;;;8.47;94.20;99112.28;5093338;28;20585;-65
2023/01/09 04:25:37;;;;;;;7.57;5.20;;;8.40;99.90;;;8.37;94.43;99101.09;5093449;28;20070;-65
2023/01/09 04:28:05;;;;;;;9.10;5.10;;;8.40;99.90;;;8.43;94.48;99122.03;5093152;28;20509;-65
2023/01/09 04:30:34;;;;;;;14.88;5.45;;;8.40;99.90;;;8.50;94.41;99122.72;5093462;28;20389;-65
2023/01/09 04:33:02;;;;;;;14.55;5.50;;;8.40;99.90;;;8.27;93.83;99078.50;5093378;28;20048;-65
2023/01/09 04:35:30;;;;;;;8.32;4.90;;;8.40;99.90;;;8.65;93.46;99106.56;5092668;28;20033;-65
2023/01/09 04:37:59;;;;;;;11.85;5.63;;;8.50;99.90;;;8.54;93.52;99132.28;5092941;28;20040;-65
2023/01/09 04:40:28;;;;;;;14.65;5.40;;;8.50;99.90;;;8.54;93.56;99105.94;5093036;28;20520;-65
2023/01/09 04:42:58;;;;;;;10.68;6.10;;;8.40;99.90;;;8.51;93.72;99099.00;5093168;28;20067;-65
2023/01/09 04:45:27;;;;;;;13.30;6.30;;;8.50;99.90;;;8.53;93.26;99112.13;5093256;28;20052;-65
2023/01/09 04:47:56;;;;;;;12.13;5.95;;;8.40;99.90;;;8.36;92.78;99057.22;5092823;28;20079;-65
2023/01/09 04:50:24;;;;;;;13.80;6.07;;;8.50;99.90;;;8.69;92.97;99092.41;5075150;28;20048;-67
2023/01/09 04:52:52;;;;;;;10.00;6.10;;;8.60;99.90;;;8.70;93.10;99099.38;5093800;28;20117;-65
2023/01/09 04:55:21;;;;;;;11.15;6.05;;;8.60;99.90;;;8.61;93.81;99129.50;5075202;28;20055;-65
2023/01/09 04:57:49;;;;;;;13.85;6.80;;;8.50;99.90;;;8.48;94.21;99101.69;5092768;28;20128;-65
2023/01/09 05:00:20;;;;;;;16.92;6.57;;;8.50;99.90;;;8.61;95.07;99100.50;5092671;28;20108;-65
2023/01/09 05:02:48;;;;;;;15.18;5.80;;;8.50;99.90;;;8.42;95.46;99046.50;5092685;28;20044;-64
2023/01/09 05:05:17;;;;;;;9.75;5.78;;;8.50;99.90;;;8.59;95.70;99083.00;5074747;28;20051;-65
2023/01/09 05:07:45;;;;;;;16.30;6.55;;;8.50;99.90;;;8.47;95.62;99070.13;5092639;28;20044;-64
2023/01/09 05:10:13;;;;;;;11.27;6.20;;;8.40;99.90;;;8.56;96.19;99069.88;5092824;28;20039;-64
2023/01/09 05:12:42;;;;;;;12.65;6.85;;;8.50;99.90;;;8.48;96.04;99050.78;5092481;28;20048;-65
2023/01/09 05:15:11;;;;;;;14.23;6.20;;;8.60;99.90;;;8.66;96.83;99072.25;5092552;28;20126;-64
2023/01/09 05:17:41;;;;;;;12.20;6.10;;;8.50;99.90;;;8.64;96.89;99083.72;5092787;28;20052;-64
2023/01/09 05:20:10;;;;;;;11.73;6.77;;;8.50;99.90;;;8.56;97.16;99078.66;5092428;28;20138;-64
2023/01/09 05:22:39;;;;;;;12.43;6.93;;;8.40;99.90;;;8.51;97.24;99074.41;5074636;28;20417;-64
2023/01/09 05:25:08;;;;;;;18.77;6.63;;;8.40;99.90;;;8.40;97.55;99048.31;5092282;28;20040;-64
2023/01/09 05:27:37;;;;;;;12.13;6.53;;;8.40;99.90;;;8.55;97.56;99083.97;5074084;28;20036;-64
2023/01/09 05:30:07;;;;;;;15.68;6.85;;;8.50;99.90;;;8.55;98.05;99063.75;5092197;28;20118;-64
2023/01/09 05:32:37;;;;;;;14.85;6.00;;;8.50;99.90;;;8.60;98.00;99076.81;5092250;28;20055;-64
2023/01/09 05:35:08;;;;;;;11.50;6.10;;;8.50;99.90;;;8.62;97.86;99053.91;5092250;28;20155;-64
2023/01/09 05:37:36;;;;;;;15.38;5.85;;;8.50;99.90;;;8.40;98.09;99053.59;5092582;28;20048;-64
2023/01/09 05:40:06;;;;;;;17.90;6.55;;;8.50;99.90;;;8.42;98.46;99035.13;5092447;28;20056;-64
2023/01/09 05:42:35;;;;;;;16.17;6.30;;;8.50;99.90;;;8.46;98.40;99027.09;5092250;28;20386;-64
2023/01/09 05:45:04;;;;;;;14.23;6.63;;;8.50;99.90;;;8.65;98.67;99053.84;5092111;28;20438;-64
2023/01/09 05:47:33;;;;;;;16.23;6.63;;;8.50;99.90;;;8.66;99.42;99074.00;5092378;28;20144;-64
2023/01/09 05:50:01;;;;;;;17.17;6.32;;;8.50;99.90;;;8.59;99.62;99064.53;5096006;28;20062;-64
2023/01/09 05:52:31;;;;;;;15.35;6.55;;;8.50;99.90;;;8.61;99.86;99062.75;5095876;28;20044;-66
2023/01/09 05:55:00;;;;;;;15.10;6.38;;;8.40;99.90;;;8.60;100.00;99061.00;5096214;28;20131;-64
2023/01/09 05:57:28;;;;;;;16.23;6.57;;;8.40;99.90;;;8.65;100.00;99062.59;5095924;28;20066;-64
2023/01/09 05:59:57;;;;;;;15.35;6.57;;;8.50;99.90;;;8.71;100.00;99074.78;5095915;28;20505;-64
2023/01/09 06:02:25;;;;;;;20.08;7.28;;;8.50;99.90;;;8.74;100.00;99070.28;5095849;28;20048;-64
2023/01/09 06:04:54;;;;;;;13.63;6.00;;;8.60;99.90;;;8.71;100.00;99054.53;5096098;28;20047;-64
2023/01/09 06:07:22;;;;;;;16.48;6.65;;;8.60;99.90;;;8.70;100.00;99067.75;5095732;28;20105;-64
2023/01/09 06:09:52;;;;;;;15.38;6.28;;;8.60;99.90;;;8.79;100.00;99051.69;5095754;28;20040;-64
2023/01/09 06:12:20;;;;;;;14.85;6.13;;;8.60;99.90;;;8.81;100.00;99055.16;5095633;28;20089;-64
2023/01/09 06:14:49;;;;;;;13.65;6.07;;;8.70;99.90;;;8.88;100.00;99062.88;5095727;28;20076;-64
2023/01/09 06:17:17;;;;;;;16.30;6.38;;;8.70;99.90;;;8.66;100.00;99035.38;5096000;28;20083;-65
2023/01/09 06:19:46;;;;;;;12.20;6.03;;;8.70;99.90;;;8.81;100.00;99048.13;5095859;28;20041;-64
2023/01/09 06:22:14;;;;;;;15.50;6.30;;;8.70;99.90;;;8.82;100.00;99060.41;5095580;28;20067;-64
2023/01/09 06:24:42;;;;;;;14.00;6.72;;;8.70;99.90;;;8.82;100.00;99047.25;5095522;28;20074;-66
2023/01/09 06:27:12;;;;;;;17.33;7.20;;;8.70;99.90;;;8.79;100.00;99056.97;5095994;28;20036;-64
2023/01/09 06:29:41;;;;;;;9.90;6.13;;;8.70;99.90;;;8.87;100.00;99065.53;5095383;28;20469;-64
2023/01/09 06:32:09;;;;;;;12.70;6.05;;;8.70;99.90;;;8.81;100.00;99063.06;5095244;28;20036;-64
2023/01/09 06:34:38;;;;;;;11.07;5.65;;;8.70;99.90;;;7.86;100.00;98876.78;5095507;28;20047;-64
2023/01/09 06:37:06;;;;;;;15.90;5.68;;;8.80;99.90;;;8.93;100.00;99068.03;5095272;28;20036;-64
2023/01/09 06:39:35;;;;;;;13.82;5.38;;;8.80;99.90;;;8.62;100.00;99024.94;5095249;28;20070;-64
2023/01/09 06:42:04;;;;;;;16.08;6.32;;;8.80;99.90;;;8.98;100.00;99074.06;5095377;28;20396;-64
2023/01/09 06:44:36;;;;;;;11.95;5.35;;;8.80;99.90;;;9.03;100.00;99080.06;5095601;28;20432;-64
2023/01/09 06:47:04;;;;;;;18.48;5.22;;;8.80;99.90;;;9.04;100.00;99079.13;5076793;28;20051;-64
2023/01/09 06:49:33;;;;;;;13.07;5.07;;;8.90;99.90;;;9.10;100.00;99078.97;5095110;28;20079;-64
2023/01/09 06:52:04;;;;;;;18.83;5.10;;;9.00;99.90;;;9.27;100.00;99089.91;5094636;28;20040;-64
2023/01/09 06:54:32;;;;;;;8.52;4.32;;;9.10;99.90;;;9.22;100.00;99090.97;5094692;28;20040;-64
2023/01/09 06:57:01;;;;;;;9.65;4.10;;;9.00;99.90;;;9.32;100.00;99113.53;5094905;28;20068;-64
2023/01/09 06:59:30;;;;;;;14.43;4.75;;;9.10;99.90;;;9.42;100.00;99118.53;5094270;28;20040;-64
2023/01/09 07:02:00;;;;;;;9.75;4.10;;;9.20;99.90;;;9.54;100.00;99134.00;5094591;28;20039;-64
2023/01/09 07:04:28;;;;;;;13.88;4.75;;;9.30;99.90;;;9.58;99.95;99125.09;5094804;28;20048;-64
2023/01/09 07:06:57;;;;;;;11.48;4.45;;;9.40;99.90;;;8.96;99.57;99020.50;5076577;28;20535;-65
2023/01/09 07:09:25;;;;;;;11.02;4.70;;;9.40;99.90;;;9.61;99.60;99142.63;5094524;28;20040;-64
2023/01/09 07:11:57;;;;;;;14.13;4.57;;;9.40;99.90;;;9.68;99.26;99138.88;5094656;28;20071;-65
2023/01/09 07:14:25;;;;;;;12.68;4.75;;;9.50;99.90;;;9.62;99.19;99150.50;5094716;28;20395;-64
2023/01/09 07:16:54;;;;;;;11.13;4.10;;;9.50;99.90;;;9.57;99.27;99165.59;5094154;28;20048;-64
2023/01/09 07:19:24;;;;;;;15.73;4.07;;;9.40;99.90;;;9.56;99.33;99163.00;5094275;28;20485;-64
2023/01/09 07:21:52;;;;;;;12.60;4.13;;;9.40;99.90;;;9.56;99.83;99177.06;5094779;28;20055;-64
2023/01/09 07:24:20;;;;;;;15.65;4.85;;;9.40;99.90;;;9.46;99.33;99161.53;5094237;28;20066;-64
2023/01/09 07:26:49;;;;;;;15.57;4.68;;;9.40;99.90;;;9.63;99.54;99190.94;5094175;28;20051;-65
2023/01/09 07:29:17;;;;;;;12.27;4.82;;;9.50;99.90;;;9.38;99.45;99155.59;5093253;28;20502;-64
2023/01/09 07:31:46;;;;;;;13.00;4.57;;;9.40;99.90;;;9.28;98.79;99173.44;5094220;28;20412;-64
2023/01/09 07:34:15;;;;;;;7.78;3.90;;;9.40;99.90;;;9.48;99.27;99215.13;5094397;28;20040;-64
2023/01/09 07:36:45;;;;;;;11.80;3.90;;;9.30;99.90;;;9.53;99.18;99215.84;5094065;28;20047;-64
2023/01/09 07:39:14;;;;;;;15.93;4.22;;;9.40;99.90;;;9.54;98.99;99218.44;5094151;28;20496;-63
2023/01/09 07:41:43;;;;;;;10.20;4.18;;;9.40;99.90;;;9.53;99.12;99216.72;5094273;28;20048;-63
2023/01/09 07:44:12;;;;;;;13.27;4.28;;;9.50;99.90;;;9.36;98.73;99195.22;5093738;28;20452;-63
2023/01/09 07:46:40;;;;;;;15.00;5.13;;;9.50;99.90;;;9.61;98.92;99246.44;5092665;28;20496;-64
2023/01/09 07:49:09;;;;;;;11.43;4.53;;;9.50;99.90;;;9.63;99.05;99247.25;5093905;28;20040;-63
2023/01/09 07:51:41;;;;;;;14.20;5.00;;;9.50;99.90;;;9.55;98.96;99257.16;5093877;28;20075;-63
2023/01/09 07:54:12;;;;;;;17.35;5.30;;;9.40;99.90;;;9.40;99.71;99259.31;5093854;28;20052;-63
2023/01/09 07:56:41;;;;;;;12.27;4.72;;;9.30;99.90;;;9.36;99.96;99255.03;5094316;28;20069;-62
2023/01/09 07:59:09;;;;;;;19.60;5.65;;;9.30;99.90;;;9.45;100.00;99276.75;5093723;28;20399;-62
2023/01/09 08:01:38;;;;;;;19.10;5.10;;;9.30;99.90;;;9.43;100.00;99275.94;5093670;28;20044;-63
2023/01/09 08:04:06;;;;;;;15.77;5.32;;;9.30;99.90;;;9.45;100.00;99270.59;5093484;28;20498;-62
2023/01/09 08:06:34;;;;;;;18.38;5.45;;;9.40;99.90;;;9.51;99.87;99273.97;5075516;28;20551;-62
2023/01/09 08:09:03;;;;;;;22.17;6.60;;;9.50;99.90;;;9.71;100.00;99307.75;5093975;28;20047;-63
2023/01/09 08:11:33;;;;;;;19.33;6.13;;;9.50;99.90;;;9.70;99.26;99314.81;5092741;28;20040;-63
2023/01/09 08:14:01;;;;;;;21.37;7.03;;;9.60;99.90;;;9.64;99.38;99324.69;5093518;28;20051;-65
2023/01/09 08:16:30;;;;;;;20.23;6.78;;;9.50;99.90;;;9.40;99.38;99298.91;5093874;28;20477;-63
2023/01/09 08:18:58;;;;;;;26.10;6.15;;;9.50;99.90;;;9.64;98.80;99330.81;5093324;28;20199;-64
2023/01/09 08:21:27;;;;;;;24.85;7.75;;;9.50;99.90;;;9.63;98.54;99344.91;5093210;28;20043;-66
2023/01/09 08:23:55;;;;;;;26.30;7.32;;;9.50;99.90;;;9.36;98.19;99278.75;5093230;28;20113;-62
2023/01/09 08:26:24;;;;;;;22.05;6.90;;;9.60;99.90;;;9.74;97.88;99340.22;5075242;28;20043;-65
2023/01/09 08:28:53;;;;;;;22.65;7.68;;;9.60;99.90;;;9.77;97.28;99348.09;5093155;28;20560;-64
2023/01/09 08:31:22;;;;;;;24.38;7.20;;;9.60;99.90;;;9.63;97.03;99350.19;5093379;28;20058;-63
2023/01/09 08:33:50;;;;;;;26.30;6.60;;;9.50;99.90;;;9.55;96.85;99319.63;5093002;28;20040;-64
2023/01/09 08:36:19;;;;;;;25.27;6.90;;;9.60;99.90;;;9.77;96.43;99363.94;5093075;28;20043;-64
2023/01/09 08:38:48;;;;;;;16.27;6.20;;;9.70;99.90;;;9.94;96.16;99381.97;5093052;28;20071;-64
2023/01/09 08:47:05;;;;;;;22.65;6.80;;;9.80;99.90;;;9.62;96.31;99364.28;5093379;28;20450;-65
2023/01/09 08:49:35;;;;;;;23.98;6.82;;;9.70;99.90;;;9.97;96.04;99395.06;5093206;28;20040;-62
2023/01/09 08:52:05;;;;;;;25.50;7.37;;;9.80;99.90;;;9.91;95.42;99387.34;5093030;28;20063;-62
2023/01/09 08:54:35;;;;;;;25.85;6.40;;;9.90;99.90;;;9.76;95.08;99380.66;5093069;28;20278;-62
2023/01/09 08:57:04;;;;;;;22.30;6.18;;;9.90;99.90;;;10.08;94.68;99415.94;5092981;28;20044;-63
2023/01/09 08:59:34;;;;;;;20.38;5.72;;;9.90;99.90;;;9.82;93.14;99377.88;5092671;28;20230;-63
2023/01/09 09:02:07;;;;;;;15.20;5.35;;;10.00;99.90;;;9.87;91.74;99402.38;5092504;28;20040;-62
2023/01/09 09:04:35;;;;;;;16.10;5.47;;;9.90;99.90;;;10.00;89.99;99435.50;5074714;28;20048;-63
2023/01/09 09:07:03;;;;;;;20.05;5.78;;;9.90;99.90;;;10.09;89.50;99434.38;5092793;28;20040;-63
2023/01/09 09:09:32;;;;;;;15.25;5.07;;;9.90;99.90;;;10.10;88.64;99440.59;5092506;28;20036;-63
2023/01/09 09:12:00;;;;;;;11.63;4.80;;;9.90;99.90;;;10.04;87.89;99438.94;5092707;28;20413;-65
2023/01/09 09:17:17;;;;;;;15.35;5.38;;;9.90;99.90;;;9.96;88.03;99428.56;5092521;28;20051;-65
2023/01/09 09:19:45;;;;;;;15.50;5.22;;;10.00;99.90;;;10.10;88.55;99449.38;5074541;28;20074;-66
2023/01/09 09:22:15;;;;;;;19.25;5.53;;;10.00;99.90;;;10.23;88.97;99468.41;5093866;28;20044;-65
2023/01/09 09:24:43;;;;;;;18.65;6.28;;;10.00;99.90;;;10.16;89.21;99456.28;5096735;28;20406;-65
2023/01/09 09:27:12;;;;;;;13.85;5.85;;;10.10;99.90;;;9.71;89.57;99377.28;5096724;28;20474;-65
2023/01/09 09:29:40;;;;;;;18.40;5.90;;;10.10;99.90;;;10.19;89.49;99482.59;5096612;28;20036;-64
2023/01/09 09:32:09;;;;;;;20.77;6.57;;;10.00;99.90;;;10.20;89.49;99493.13;5096391;28;20031;-65
2023/01/09 09:34:41;;;;;;;21.05;6.22;;;10.00;99.90;;;10.09;90.00;99492.50;5096307;28;20047;-64
2023/01/09 09:37:09;;;;;;;19.63;6.15;;;10.00;99.90;;;10.22;90.33;99501.88;5096014;28;20082;-65
2023/01/09 09:39:38;;;;;;;19.52;5.60;;;10.00;99.90;;;10.11;91.32;99514.50;5096393;28;20044;-65
2023/01/09 09:45:24;;;;;;;15.77;5.53;;;9.90;99.90;;;10.08;92.29;99489.91;5096647;28;20131;-67
2023/01/09 09:48:07;;;;;;;22.17;6.55;;;10.00;99.90;;;10.26;92.11;99505.34;5096638;28;20048;-67
2023/01/09 09:51:02;;;;;;;19.48;6.18;;;10.10;99.90;;;10.12;91.99;99503.06;5096513;28;20032;-67
2023/01/09 09:53:36;;;;;;;24.10;6.47;;;10.10;99.90;;;10.18;91.83;99512.59;5096184;28;20090;-67
2023/01/09 09:56:08;;;;;;;17.48;5.40;;;10.00;99.90;;;10.13;91.25;99514.47;5096224;28;20060;-67
2023/01/09 09:58:40;;;;;;;15.77;5.65;;;10.00;99.90;;;10.27;90.80;99538.78;5096694;28;20147;-67
2023/01/09 10:01:13;;;;;;;15.98;5.07;;;10.00;99.90;;;10.26;90.30;99545.00;5096492;28;20048;-67
2023/01/09 10:03:47;;;;;;;22.08;6.45;;;10.10;99.90;;;10.07;90.25;99519.84;5096566;28;20080;-64
2023/01/09 10:06:27;;;;;;;13.25;5.72;;;10.00;99.90;;;10.27;89.96;99557.28;5096338;28;20324;-65
2023/01/09 10:09:05;;;;;;;23.80;5.88;;;10.10;99.90;;;10.27;89.35;99559.91;5078244;28;20141;-65
2023/01/09 10:11:43;;;;;;;17.77;5.95;;;10.10;99.90;;;10.11;88.92;99534.75;5096026;28;20040;-65
2023/01/09 10:14:12;;;;;;;20.80;6.05;;;10.10;99.90;;;10.35;88.23;99584.38;5095954;28;20074;-64
2023/01/09 10:17:29;;;;;;;17.73;5.93;;;10.20;99.90;;;10.46;88.66;99577.94;5096315;28;20109;-64
2023/01/09 10:20:53;;;;;;;20.20;6.07;;;10.30;99.90;;;10.49;87.71;99591.06;5095673;28;20036;-64
2023/01/09 10:23:45;;;;;;;30.13;7.47;;;10.30;99.90;;;10.35;86.76;99547.41;5095684;28;20044;-64
2023/01/09 10:26:23;;;;;;;28.95;7.32;;;10.40;99.90;;;10.66;87.10;99607.41;5095712;28;20040;-63
2023/01/09 10:29:36;;;;;;;23.33;6.47;;;10.50;99.90;;;10.71;86.84;99609.91;5095436;28;20048;-63
2023/01/09 10:32:34;;;;;;;20.30;6.78;;;10.60;99.90;;;10.06;86.79;99499.66;5088953;28;20101;-65
2023/01/09 10:35:22;;;;;;;15.48;5.70;;;10.50;99.90;;;10.73;87.10;99613.38;5094551;28;20051;-65
2023/01/09 10:38:02;;;;;;;23.00;7.18;;;10.60;99.90;;;10.92;86.57;99619.09;5095258;28;20044;-64
2023/01/09 10:40:36;;;;;;;23.05;6.30;;;10.70;99.90;;;10.99;86.39;99616.25;5077418;28;20052;-63
2023/01/09 10:43:09;;;;;;;18.23;5.93;;;10.80;99.90;;;11.02;85.97;99629.38;5095162;28;20366;-63
2023/01/09 10:45:44;;;;;;;27.60;6.22;;;10.90;99.90;;;9.14;85.81;99302.16;5095056;28;20113;-63
2023/01/09 10:48:21;;;;;;;21.05;7.18;;;10.90;99.90;;;10.58;86.02;99523.88;5095030;28;20044;-62
2023/01/09 10:50:52;;;;;;;20.25;6.20;;;11.00;99.90;;;11.16;85.70;99637.84;5095453;28;20117;-62
2023/01/09 10:53:23;;;;;;;26.05;6.28;;;11.00;99.90;;;11.04;85.75;99650.50;5094777;28;20119;-63
2023/01/09 10:55:57;;;;;;;19.30;6.38;;;10.90;99.90;;;11.00;86.23;99644.41;5094804;28;20117;-62
2023/01/09 10:58:26;;;;;;;23.42;7.05;;;10.80;99.90;;;11.09;86.59;99654.75;5094986;28;20050;-62
2023/01/09 11:00:55;;;;;;;18.15;5.60;;;10.90;99.90;;;11.03;86.55;99657.59;5076430;28;20043;-62
2023/01/09 11:03:27;;;;;;;25.45;6.80;;;10.90;99.90;;;11.03;86.77;99664.66;5094500;28;20075;-64